Time;durP1;ratioP1;P1;durP2;ratioP2;P2;SDS_P1;SDS_P2;PMS_P1;PMS_P2;Temp;Humidity;BMP_temperature;BMP_pressure;BME280_temperature;BME280_humidity;BME280_pressure;Samples;Min_cycle;Max_cycle;Signal;HPM_P1;HPM_P2
2021/12/18 00:02:14;;;;;;;25.90;16.92;;;;;;;7.21;100.00;103978.00;4956876;29;20119;-47
2021/12/18 00:04:40;;;;;;;22.42;15.05;;;;;;;7.19;100.00;103980.53;4939542;29;20489;-47
2021/12/18 00:07:06;;;;;;;21.42;14.50;;;;;;;7.18;100.00;103981.34;4956700;29;20469;-47
2021/12/18 00:09:33;;;;;;;23.33;15.05;;;;;;;7.17;100.00;103984.72;4956651;29;20082;-48
2021/12/18 00:11:59;;;;;;;22.70;15.38;;;;;;;7.17;100.00;103986.44;4956622;29;20026;-49
2021/12/18 00:14:25;;;;;;;22.15;13.32;;;;;;;7.16;100.00;103985.56;4956538;29;20035;-48
2021/12/18 00:16:50;;;;;;;22.17;14.13;;;;;;;7.16;100.00;103990.78;4956665;29;20023;-47
2021/12/18 00:19:16;;;;;;;20.20;13.95;;;;;;;7.14;100.00;103981.97;4956494;29;20038;-50
2021/12/18 00:21:42;;;;;;;21.90;13.65;;;;;;;7.10;100.00;103974.81;4939441;29;20031;-50
2021/12/18 00:24:08;;;;;;;22.73;14.05;;;;;;;7.15;100.00;103988.06;4956476;29;20053;-47
2021/12/18 00:26:34;;;;;;;25.13;16.02;;;;;;;7.16;100.00;103980.38;4956355;29;20023;-48
2021/12/18 00:29:00;;;;;;;26.27;15.52;;;;;;;7.16;100.00;103979.47;4956344;29;20023;-47
2021/12/18 00:31:26;;;;;;;21.83;13.13;;;;;;;7.15;100.00;103982.88;4956243;29;20039;-48
2021/12/18 00:33:52;;;;;;;19.95;12.25;;;;;;;7.08;100.00;103976.44;4956224;29;20039;-47
2021/12/18 00:36:17;;;;;;;19.90;11.45;;;;;;;7.08;100.00;103971.25;4956292;29;20390;-49
2021/12/18 00:38:43;;;;;;;17.77;10.38;;;;;;;7.12;100.00;103977.50;4956166;29;20031;-47
2021/12/18 00:43:40;;;;;;;17.23;10.77;;;;;;;7.10;100.00;103980.00;4956199;29;20039;-48
2021/12/18 00:46:06;;;;;;;19.92;11.45;;;;;;;7.12;100.00;103978.41;4956246;29;20062;-46
2021/12/18 00:48:31;;;;;;;18.10;11.00;;;;;;;7.14;100.00;103981.06;4955756;29;20035;-47
2021/12/18 00:50:57;;;;;;;18.58;10.80;;;;;;;7.15;100.00;103968.16;4955966;29;20088;-47
2021/12/18 00:53:22;;;;;;;18.08;11.45;;;;;;;7.17;100.00;103971.72;4955989;29;20027;-48
2021/12/18 00:55:50;;;;;;;22.15;12.10;;;;;;;7.17;100.00;103969.13;4955860;29;20027;-47
2021/12/18 00:58:16;;;;;;;22.02;12.98;;;;;;;7.19;100.00;103970.13;4954676;29;20387;-48
2021/12/18 01:00:42;;;;;;;24.55;13.80;;;;;;;7.11;100.00;103955.81;4955948;29;20058;-47
2021/12/18 01:03:16;;;;;;;26.65;13.65;;;;;;;7.17;100.00;103963.94;4956033;29;20075;-47
2021/12/18 01:05:42;;;;;;;22.65;12.63;;;;;;;7.21;100.00;103963.28;4955931;29;20078;-47
2021/12/18 01:08:08;;;;;;;20.60;11.90;;;;;;;7.19;100.00;103959.72;4955889;29;20035;-48
2021/12/18 01:10:57;;;;;;;;;;;;;;;;;;;;;
2021/12/18 01:13:08;;;;;;;24.15;13.20;;;;;;;7.20;100.00;103956.31;4955653;29;20039;-51
2021/12/18 01:15:38;;;;;;;23.98;13.50;;;;;;;7.23;100.00;103956.47;4955850;29;20389;-47
2021/12/18 01:23:33;;;;;;;24.83;13.07;;;;;;;7.23;100.00;103956.47;4956360;29;20038;-47
2021/12/18 01:25:58;;;;;;;22.15;12.60;;;;;;;7.22;100.00;103959.00;4956178;29;20035;-47
2021/12/18 01:28:25;;;;;;;25.02;13.73;;;;;;;7.22;100.00;103951.19;4956095;29;20027;-47
2021/12/18 01:30:51;;;;;;;26.27;14.02;;;;;;;7.23;100.00;103961.69;4955633;29;20032;-47
2021/12/18 01:33:16;;;;;;;27.63;13.52;;;;;;;7.23;100.00;103956.47;4955709;29;20082;-47
2021/12/18 01:35:44;;;;;;;25.35;13.90;;;;;;;7.24;100.00;103963.47;4955565;29;20045;-47
2021/12/18 01:38:11;;;;;;;26.95;14.85;;;;;;;7.21;100.00;103958.09;4967451;28;20026;-47
2021/12/18 01:40:37;;;;;;;25.90;14.98;;;;;;;7.22;100.00;103965.09;4974856;28;20492;-49
2021/12/18 01:46:18;;;;;;;28.88;15.93;;;;;;;7.21;100.00;103965.88;4955773;28;20053;-48
2021/12/18 01:54:13;;;;;;;31.98;14.75;;;;;;;7.27;100.00;103974.03;4958793;29;20121;-47
2021/12/18 01:56:39;;;;;;;28.48;15.48;;;;;;;7.25;100.00;103970.44;4959091;28;20430;-47
2021/12/18 01:59:04;;;;;;;26.60;15.13;;;;;;;7.25;100.00;103967.84;4958978;28;20038;-48
2021/12/18 02:01:29;;;;;;;30.67;15.55;;;;;;;7.25;100.00;103964.34;4959048;28;20054;-47
2021/12/18 02:03:55;;;;;;;30.08;14.88;;;;;;;7.25;100.00;103957.44;4958892;28;20074;-47
2021/12/18 02:06:23;;;;;;;27.33;15.13;;;;;;;7.27;100.00;103966.25;4959078;28;20439;-47
2021/12/18 02:08:48;;;;;;;28.40;16.30;;;;;;;7.27;100.00;103963.66;4959448;28;20035;-49
2021/12/18 02:21:58;;;;;;;25.38;11.77;;;;;;;7.17;100.00;103945.72;4880718;29;20448;-47
2021/12/18 02:24:27;;;;;;;24.88;12.60;;;;;;;7.18;100.00;103944.94;4880848;29;20029;-47
2021/12/18 02:26:52;;;;;;;20.15;11.52;;;;;;;7.18;100.00;103936.22;4880768;29;20052;-47
2021/12/18 02:29:18;;;;;;;22.98;12.13;;;;;;;7.21;100.00;103937.28;4880834;29;20497;-47
2021/12/18 02:31:45;;;;;;;25.23;13.00;;;;;;;7.23;100.00;103940.88;4919170;28;20118;-48
2021/12/18 02:34:17;;;;;;;21.83;11.45;;;;;;;7.24;100.00;103944.38;4958425;28;20083;-48
2021/12/18 02:36:48;;;;;;;25.45;13.05;;;;;;;7.16;100.00;103930.97;4958405;28;20023;-47
2021/12/18 02:39:40;;;;;;;19.55;10.43;;;;;;;7.24;100.00;103942.69;4958284;28;20029;-47
2021/12/18 02:42:11;;;;;;;22.65;11.57;;;;;;;7.25;100.00;103939.25;4958225;28;20466;-47
2021/12/18 02:44:39;;;;;;;21.75;11.75;;;;;;;7.24;100.00;103937.47;4958236;28;20035;-50
2021/12/18 02:47:06;;;;;;;18.65;10.13;;;;;;;7.21;100.00;103932.09;4958186;28;20031;-49
2021/12/18 02:49:31;;;;;;;18.38;9.90;;;;;;;7.20;100.00;103930.31;4957946;28;20396;-48
2021/12/18 02:51:57;;;;;;;19.98;10.82;;;;;;;7.16;100.00;103933.56;4957989;29;20090;-47
2021/12/18 02:54:22;;;;;;;21.27;10.85;;;;;;;7.12;100.00;103926.41;4957043;29;20066;-49
2021/12/18 02:56:47;;;;;;;18.65;10.50;;;;;;;7.16;100.00;103928.38;4958114;28;20133;-47
2021/12/18 02:59:15;;;;;;;21.95;11.93;;;;;;;7.15;100.00;103926.56;4957966;28;20027;-47
2021/12/18 03:01:41;;;;;;;20.92;11.60;;;;;;;7.14;100.00;103929.97;4956775;29;20027;-48
2021/12/18 03:04:17;;;;;;;21.25;10.77;;;;;;;7.16;100.00;103936.16;4956834;28;20106;-49
2021/12/18 03:06:47;;;;;;;21.85;10.98;;;;;;;7.17;100.00;103924.03;4957856;28;20023;-50
2021/12/18 03:22:55;;;;;;;17.95;9.77;;;;;;;7.12;100.00;103933.31;4957523;28;20031;-48
2021/12/18 03:25:26;;;;;;;21.67;10.60;;;;;;;7.11;100.00;103929.81;4958308;28;20027;-47
2021/12/18 03:27:53;;;;;;;19.15;10.20;;;;;;;7.11;100.00;103932.41;4957304;28;20038;-50
2021/12/18 03:30:20;;;;;;;17.65;10.60;;;;;;;7.10;100.00;103922.81;4957461;28;20046;-47
2021/12/18 03:32:45;;;;;;;18.08;10.30;;;;;;;7.09;100.00;103931.41;4957291;28;20462;-47
2021/12/18 03:35:12;;;;;;;21.33;10.98;;;;;;;7.09;100.00;103927.09;4957184;28;20093;-50
2021/12/18 03:37:38;;;;;;;19.83;10.43;;;;;;;7.10;100.00;103930.59;4957353;28;20090;-48
2021/12/18 03:40:07;;;;;;;21.65;10.98;;;;;;;7.08;100.00;103927.06;4957216;28;20422;-47
2021/12/18 03:42:33;;;;;;;21.15;11.20;;;;;;;7.08;100.00;103932.25;4957117;28;20043;-49
2021/12/18 03:44:59;;;;;;;22.42;12.20;;;;;;;7.07;100.00;103927.84;4957107;28;20019;-47
2021/12/18 03:47:24;;;;;;;23.60;12.77;;;;;;;7.09;100.00;103927.09;4957168;28;20106;-48
2021/12/18 03:49:50;;;;;;;23.20;11.43;;;;;;;7.08;100.00;103921.84;4956730;28;20494;-47
2021/12/18 03:52:15;;;;;;;22.63;12.05;;;;;;;7.06;100.00;103920.84;4956928;28;20031;-47
2021/12/18 03:54:41;;;;;;;23.20;13.30;;;;;;;7.03;100.00;103920.69;4957049;28;20086;-47
2021/12/18 03:57:06;;;;;;;24.35;12.60;;;;;;;7.05;100.00;103916.47;4956973;28;20078;-50
2021/12/18 03:59:31;;;;;;;23.55;12.15;;;;;;;7.06;100.00;103920.84;4956894;28;20044;-49
2021/12/18 04:01:57;;;;;;;22.55;12.00;;;;;;;7.05;100.00;103914.75;4956856;28;20047;-49
2021/12/18 04:04:23;;;;;;;24.42;13.15;;;;;;;7.02;100.00;103906.78;4956703;28;20026;-48
2021/12/18 04:06:48;;;;;;;26.63;13.90;;;;;;;7.01;100.00;103906.69;4956649;28;20074;-47
2021/12/18 04:09:14;;;;;;;25.92;12.88;;;;;;;7.03;100.00;103910.28;4956774;28;20039;-47
2021/12/18 04:11:40;;;;;;;29.13;13.70;;;;;;;7.02;100.00;103913.69;4956648;28;20455;-50
2021/12/18 04:14:06;;;;;;;28.55;14.25;;;;;;;6.97;100.00;103904.75;4956506;28;20038;-47
2021/12/18 04:16:33;;;;;;;28.23;14.60;;;;;;;7.02;100.00;103911.09;4956327;28;20399;-49
2021/12/18 04:18:59;;;;;;;30.67;14.35;;;;;;;7.02;100.00;103914.59;4957610;28;20109;-47
2021/12/18 04:21:24;;;;;;;29.88;15.10;;;;;;;7.02;100.00;103918.91;4956644;28;20515;-47
2021/12/18 04:23:50;;;;;;;33.55;15.00;;;;;;;7.03;100.00;103915.50;4956644;28;20062;-46
2021/12/18 04:26:15;;;;;;;31.48;14.48;;;;;;;7.02;100.00;103903.28;4956494;28;20059;-47
2021/12/18 04:28:40;;;;;;;34.65;16.50;;;;;;;7.00;100.00;103908.44;4956395;28;20062;-47
2021/12/18 04:31:06;;;;;;;29.75;15.05;;;;;;;7.00;100.00;103912.72;4956262;28;20037;-47
2021/12/18 04:33:31;;;;;;;29.58;15.25;;;;;;;7.01;100.00;103914.50;4965975;28;20118;-47
2021/12/18 04:35:56;;;;;;;29.08;15.20;;;;;;;6.97;100.00;103909.94;4975479;28;20026;-47
2021/12/18 04:38:22;;;;;;;22.15;11.60;;;;;;;6.92;100.00;103921.81;4975508;28;20086;-47
2021/12/18 04:40:49;;;;;;;20.98;12.43;;;;;;;6.89;100.00;103921.63;4975367;28;20038;-47
2021/12/18 04:43:15;;;;;;;21.98;11.85;;;;;;;6.85;100.00;103914.47;4975488;28;20034;-47
2021/12/18 04:45:40;;;;;;;22.88;11.63;;;;;;;6.83;100.00;103911.78;4975406;28;20019;-48
2021/12/18 04:48:06;;;;;;;22.00;11.68;;;;;;;6.78;100.00;103917.53;4983473;23;20061;-50
2021/12/18 04:50:31;;;;;;;24.70;11.77;;;;;;;6.80;100.00;103921.13;4994721;28;20392;-49
2021/12/18 04:52:56;;;;;;;25.67;12.73;;;;;;;6.79;100.00;103915.03;4994545;28;20022;-47
2021/12/18 04:55:22;;;;;;;29.40;13.05;;;;;;;6.83;100.00;103923.91;4994720;28;20034;-47
2021/12/18 04:57:47;;;;;;;25.50;11.90;;;;;;;6.85;100.00;103922.25;4993466;28;20038;-49
2021/12/18 05:00:16;;;;;;;23.98;12.10;;;;;;;6.83;100.00;103926.50;4994662;28;20018;-48
2021/12/18 05:02:43;;;;;;;27.20;12.02;;;;;;;6.82;100.00;103919.50;4994724;28;20022;-47
2021/12/18 05:05:10;;;;;;;24.95;11.38;;;;;;;6.84;100.00;103933.50;4994697;28;20026;-47
2021/12/18 05:07:36;;;;;;;22.75;11.18;;;;;;;6.83;100.00;103936.88;4994583;28;20088;-47
2021/12/18 05:10:03;;;;;;;22.77;10.48;;;;;;;6.80;100.00;103936.72;4994529;28;20120;-47
2021/12/18 05:12:29;;;;;;;23.50;11.32;;;;;;;6.77;100.00;103937.41;4994521;28;20109;-48
2021/12/18 05:14:54;;;;;;;20.45;10.15;;;;;;;6.76;100.00;103937.34;4994445;28;20165;-48
2021/12/18 05:17:19;;;;;;;23.23;11.20;;;;;;;6.74;100.00;103936.34;4994468;28;20121;-48
2021/12/18 05:19:45;;;;;;;24.15;12.18;;;;;;;6.75;100.00;103944.25;4994520;28;20119;-50
2021/12/18 05:22:10;;;;;;;25.10;12.48;;;;;;;6.76;100.00;103945.16;4994351;28;20022;-47
2021/12/18 05:24:35;;;;;;;29.38;12.93;;;;;;;6.74;100.00;103941.56;4994379;28;20026;-48
2021/12/18 05:27:01;;;;;;;24.85;11.77;;;;;;;6.74;100.00;103942.47;4994563;28;20034;-48
2021/12/18 05:29:26;;;;;;;25.15;12.35;;;;;;;6.77;100.00;103946.94;4998435;28;20030;-47
2021/12/18 05:31:52;;;;;;;25.30;12.10;;;;;;;6.79;100.00;103945.31;4998380;28;20034;-47
2021/12/18 05:34:22;;;;;;;21.15;11.05;;;;;;;6.78;100.00;103939.22;4998274;28;20022;-48
2021/12/18 05:39:26;;;;;;;27.02;12.45;;;;;;;6.76;100.00;103945.16;4998418;28;20042;-48
2021/12/18 05:41:52;;;;;;;26.92;13.25;;;;;;;6.73;100.00;103937.19;4998303;28;20033;-48
2021/12/18 05:44:19;;;;;;;28.42;12.88;;;;;;;6.76;100.00;103940.84;4998247;28;20089;-48
2021/12/18 05:46:46;;;;;;;30.70;14.23;;;;;;;6.71;100.00;103931.91;4998025;28;20097;-47
2021/12/18 05:49:12;;;;;;;30.55;14.18;;;;;;;6.78;100.00;103944.41;4997842;28;20054;-49
2021/12/18 05:51:38;;;;;;;30.20;13.80;;;;;;;6.80;100.00;103952.31;4998021;28;20552;-46
2021/12/18 05:54:04;;;;;;;29.38;14.52;;;;;;;6.80;100.00;103942.81;4997869;28;20022;-48
2021/12/18 05:56:30;;;;;;;29.70;14.98;;;;;;;6.81;100.00;103941.09;4997853;28;20030;-48
2021/12/18 05:58:56;;;;;;;29.65;14.15;;;;;;;6.83;100.00;103947.28;4997804;28;20105;-48
2021/12/18 06:01:22;;;;;;;30.40;14.40;;;;;;;6.82;100.00;103940.28;4997835;28;20085;-47
2021/12/18 06:03:47;;;;;;;30.40;13.40;;;;;;;6.83;100.00;103947.28;4997756;28;20068;-48
2021/12/18 06:06:13;;;;;;;32.42;13.95;;;;;;;6.85;100.00;103948.25;4997620;28;20504;-47
2021/12/18 06:08:42;;;;;;;30.70;14.55;;;;;;;6.86;100.00;103952.66;4997718;28;20030;-49
2021/12/18 06:11:13;;;;;;;31.10;13.65;;;;;;;6.85;100.00;103950.84;4997572;28;20116;-47
2021/12/18 06:13:39;;;;;;;32.00;13.68;;;;;;;6.90;100.00;103939.00;4997620;28;20351;-48
2021/12/18 06:16:06;;;;;;;31.13;14.30;;;;;;;6.93;100.00;103939.16;4997545;28;20089;-47
2021/12/18 06:18:33;;;;;;;38.75;16.75;;;;;;;6.89;100.00;103932.00;4997499;28;20026;-47
2021/12/18 06:20:59;;;;;;;35.25;15.93;;;;;;;6.95;100.00;103932.38;4997549;28;20031;-47
2021/12/18 06:23:24;;;;;;;43.20;16.77;;;;;;;6.95;100.00;103948.88;4998151;28;20030;-48
2021/12/18 06:25:49;;;;;;;49.70;17.98;;;;;;;6.95;100.00;103937.56;4997523;28;20077;-47
2021/12/18 06:28:15;;;;;;;42.13;18.17;;;;;;;6.96;100.00;103939.38;4997481;28;20089;-47
2021/12/18 06:30:40;;;;;;;45.88;18.23;;;;;;;6.97;100.00;103935.94;4997409;28;20026;-47
2021/12/18 06:33:05;;;;;;;45.42;18.63;;;;;;;6.95;100.00;103948.88;4997128;28;20113;-47
2021/12/18 06:35:31;;;;;;;42.28;17.33;;;;;;;6.93;100.00;103936.56;4997209;28;20026;-47
2021/12/18 06:37:56;;;;;;;39.15;17.42;;;;;;;6.93;100.00;103939.16;4995790;28;20027;-48
2021/12/18 06:40:22;;;;;;;40.65;17.83;;;;;;;6.95;100.00;103935.88;4997107;28;20050;-48
2021/12/18 06:42:47;;;;;;;36.05;14.98;;;;;;;6.94;100.00;103933.19;4997146;28;20050;-48
2021/12/18 06:45:12;;;;;;;41.17;15.90;;;;;;;6.85;100.00;103935.25;4996994;28;20432;-48
2021/12/18 06:47:38;;;;;;;38.60;15.15;;;;;;;6.84;100.00;103938.69;4996935;28;20050;-50
2021/12/18 06:50:04;;;;;;;34.03;15.10;;;;;;;6.82;100.00;103924.69;4996795;28;20060;-47
2021/12/18 06:52:30;;;;;;;41.35;15.25;;;;;;;6.76;100.00;103908.78;4996914;28;20122;-47
2021/12/18 06:54:56;;;;;;;46.22;16.75;;;;;;;6.81;100.00;103923.78;4996839;28;20068;-47
2021/12/18 06:57:22;;;;;;;41.75;15.95;;;;;;;6.80;100.00;103926.31;4996830;28;20532;-48
2021/12/18 06:59:48;;;;;;;45.55;16.10;;;;;;;6.79;100.00;103934.91;4996832;28;20146;-46
2021/12/18 07:02:14;;;;;;;43.97;16.85;;;;;;;6.81;100.00;103933.28;4996798;28;20054;-48
2021/12/18 07:04:39;;;;;;;46.92;16.45;;;;;;;6.83;100.00;103926.50;4996640;28;20076;-50
2021/12/18 07:07:04;;;;;;;46.35;15.77;;;;;;;6.81;100.00;103934.19;4995443;28;20030;-47
2021/12/18 07:09:30;;;;;;;42.28;15.95;;;;;;;6.81;100.00;103938.50;4996695;28;20026;-47
2021/12/18 07:11:55;;;;;;;39.08;14.38;;;;;;;6.83;100.00;103926.50;4996556;28;20077;-47
2021/12/18 07:14:20;;;;;;;39.38;14.63;;;;;;;6.83;100.00;103929.09;4996479;28;20023;-47
2021/12/18 07:16:45;;;;;;;45.00;15.23;;;;;;;6.84;100.00;103928.28;4996613;28;20029;-47
2021/12/18 07:19:11;;;;;;;57.47;17.05;;;;;;;6.86;100.00;103926.66;4996484;28;20394;-47
2021/12/18 07:21:37;;;;;;;44.28;14.52;;;;;;;6.83;100.00;103923.91;4996379;28;20027;-50
2021/12/18 07:24:02;;;;;;;45.63;15.00;;;;;;;6.87;100.00;103933.66;4996291;28;20334;-47
2021/12/18 07:26:29;;;;;;;36.83;13.63;;;;;;;6.89;100.00;103938.13;4996256;28;20030;-48
2021/12/18 07:28:54;;;;;;;43.40;16.20;;;;;;;6.87;100.00;103923.25;4994852;28;20105;-47
2021/12/18 07:31:20;;;;;;;41.28;14.77;;;;;;;6.89;100.00;103919.91;4996258;28;20481;-48
2021/12/18 07:33:45;;;;;;;37.13;14.05;;;;;;;6.87;100.00;103926.75;4996128;28;20441;-47
2021/12/18 07:36:11;;;;;;;38.30;14.05;;;;;;;6.87;100.00;103928.44;4996269;28;20069;-48
2021/12/18 07:38:36;;;;;;;36.38;12.65;;;;;;;6.76;100.00;103919.16;4996116;28;20034;-50
2021/12/18 07:41:02;;;;;;;32.63;11.85;;;;;;;6.81;100.00;103928.09;4981065;28;20034;-47
2021/12/18 07:43:27;;;;;;;34.00;12.05;;;;;;;6.79;100.00;103934.91;4976584;28;20031;-47
2021/12/18 07:45:52;;;;;;;30.75;12.10;;;;;;;6.79;100.00;103940.13;4976507;28;20037;-48
2021/12/18 07:48:18;;;;;;;35.33;12.27;;;;;;;6.75;100.00;103938.16;4976200;28;20062;-49
2021/12/18 07:50:44;;;;;;;34.22;12.10;;;;;;;6.72;100.00;103943.19;4975935;28;20093;-48
2021/12/18 07:53:11;;;;;;;37.90;12.73;;;;;;;6.76;100.00;103939.97;4976239;28;20037;-47
2021/12/18 07:55:37;;;;;;;29.92;12.15;;;;;;;6.82;100.00;103946.38;4976351;28;20079;-47
2021/12/18 07:58:04;;;;;;;35.03;13.55;;;;;;;6.83;100.00;103942.09;4976244;28;20050;-48
2021/12/18 08:00:30;;;;;;;33.95;12.68;;;;;;;6.81;100.00;103943.69;4976170;28;20029;-48
2021/12/18 08:02:57;;;;;;;38.72;13.15;;;;;;;6.81;100.00;103929.00;4976234;28;20031;-48
2021/12/18 08:05:23;;;;;;;33.20;12.70;;;;;;;6.79;100.00;103924.53;4976098;28;20026;-48
2021/12/18 08:07:48;;;;;;;33.75;13.25;;;;;;;6.92;100.00;103947.81;4976103;28;20027;-48
2021/12/18 08:10:14;;;;;;;29.08;12.45;;;;;;;6.87;100.00;103933.66;4975984;28;20026;-49
2021/12/18 08:12:40;;;;;;;33.70;11.85;;;;;;;6.94;100.00;103941.88;4975923;28;20027;-48
2021/12/18 08:15:07;;;;;;;32.55;12.38;;;;;;;6.95;100.00;103946.28;4975950;28;20026;-49
2021/12/18 08:17:33;;;;;;;43.72;11.63;;;;;;;6.94;100.00;103934.06;4975931;28;20030;-47
2021/12/18 08:19:59;;;;;;;39.67;12.20;;;;;;;6.93;100.00;103949.56;4975838;28;20449;-47
2021/12/18 08:22:24;;;;;;;36.45;12.73;;;;;;;6.91;100.00;103946.00;4975815;28;20101;-49
2021/12/18 08:24:50;;;;;;;31.73;11.88;;;;;;;6.94;100.00;103961.75;4975711;28;20402;-49
2021/12/18 08:27:15;;;;;;;36.00;13.23;;;;;;;6.95;100.00;103955.75;4975749;28;20501;-48
2021/12/18 08:29:40;;;;;;;37.83;13.05;;;;;;;6.96;100.00;103954.97;4975774;28;20110;-47
2021/12/18 08:32:06;;;;;;;31.48;11.80;;;;;;;7.02;100.00;103956.19;4975686;28;20105;-49
2021/12/18 08:34:31;;;;;;;38.25;13.93;;;;;;;7.02;100.00;103960.50;4975571;28;20039;-47
2021/12/18 08:36:57;;;;;;;39.35;14.82;;;;;;;7.01;100.00;103966.50;4975501;28;20022;-48
2021/12/18 08:39:22;;;;;;;40.53;14.07;;;;;;;7.05;100.00;103960.66;4975504;28;20027;-48
2021/12/18 08:41:48;;;;;;;37.28;13.18;;;;;;;7.05;100.00;103958.06;4975619;28;20018;-47
2021/12/18 08:44:14;;;;;;;34.67;12.27;;;;;;;7.04;100.00;103964.09;4975400;28;20042;-47
2021/12/18 08:46:40;;;;;;;39.50;14.15;;;;;;;7.06;100.00;103952.94;4975579;28;20474;-49
2021/12/18 08:49:05;;;;;;;41.95;14.07;;;;;;;7.08;100.00;103950.44;4975411;28;20046;-49
2021/12/18 08:51:32;;;;;;;35.60;12.90;;;;;;;7.01;100.00;103954.38;4975475;28;20030;-50
2021/12/18 08:53:57;;;;;;;35.10;12.40;;;;;;;7.09;100.00;103960.00;4975166;28;20082;-47
2021/12/18 08:56:23;;;;;;;35.88;12.82;;;;;;;7.12;100.00;103952.41;4975289;28;20031;-47
2021/12/18 08:58:50;;;;;;;28.45;12.35;;;;;;;7.14;100.00;103955.97;4975172;28;20029;-47
2021/12/18 09:01:16;;;;;;;42.35;14.13;;;;;;;7.19;100.00;103964.94;4974962;28;20109;-47
2021/12/18 09:03:41;;;;;;;36.95;12.77;;;;;;;7.18;100.00;103963.13;4974657;28;20512;-46
2021/12/18 09:06:06;;;;;;;40.90;14.75;;;;;;;7.18;100.00;103957.94;4988451;28;20034;-47
2021/12/18 09:08:32;;;;;;;34.67;13.38;;;;;;;7.21;100.00;103955.50;4994540;28;20030;-47
2021/12/18 09:10:57;;;;;;;33.45;12.13;;;;;;;7.27;100.00;103961.03;4994467;28;20057;-47
2021/12/18 09:13:23;;;;;;;48.15;13.95;;;;;;;7.27;100.00;103958.44;4994518;28;20393;-48
2021/12/18 09:15:48;;;;;;;38.50;13.82;;;;;;;7.27;100.00;103953.25;4994613;28;20034;-48
2021/12/18 09:18:13;;;;;;;36.13;12.43;;;;;;;7.33;100.00;103955.25;4994719;28;20030;-48
2021/12/18 09:20:41;;;;;;;41.67;13.88;;;;;;;7.37;100.00;103963.31;4996079;28;20124;-47
2021/12/18 09:23:07;;;;;;;45.35;13.68;;;;;;;7.35;100.00;103962.34;4994667;28;20448;-47
2021/12/18 09:25:32;;;;;;;58.47;13.75;;;;;;;7.32;100.00;103961.28;4994443;28;20045;-49
2021/12/18 09:27:59;;;;;;;53.15;12.85;;;;;;;7.31;100.00;103960.41;4994476;28;20466;-47
2021/12/18 09:30:25;;;;;;;56.03;13.68;;;;;;;7.26;100.00;103960.94;4994391;28;20085;-48
2021/12/18 09:32:51;;;;;;;33.45;11.77;;;;;;;7.26;100.00;103961.84;4994191;28;20023;-47
2021/12/18 09:35:16;;;;;;;46.55;11.52;;;;;;;7.27;100.00;103963.66;4993007;28;20030;-49
2021/12/18 09:37:42;;;;;;;32.95;11.20;;;;;;;7.25;100.00;103960.03;4994337;28;20021;-47
2021/12/18 09:40:09;;;;;;;39.03;11.95;;;;;;;7.26;100.00;103961.84;4994244;28;20022;-47
2021/12/18 09:42:36;;;;;;;38.40;11.05;;;;;;;7.24;100.00;103963.47;4994321;28;20496;-47
2021/12/18 09:45:04;;;;;;;37.25;12.18;;;;;;;7.30;100.00;103975.91;4994166;28;20081;-47
2021/12/18 09:47:30;;;;;;;39.42;11.02;;;;;;;7.25;100.00;103960.03;4994184;28;20033;-48
2021/12/18 09:49:57;;;;;;;25.10;10.50;;;;;;;7.31;100.00;103976.00;4992855;28;20046;-47
2021/12/18 09:52:23;;;;;;;29.70;10.35;;;;;;;7.31;100.00;103970.81;4994016;28;20448;-47
2021/12/18 09:54:49;;;;;;;24.75;9.23;;;;;;;7.31;100.00;103970.81;4994137;28;20106;-47
2021/12/18 09:57:14;;;;;;;26.30;9.25;;;;;;;7.33;100.00;103976.97;4992473;28;20121;-47
2021/12/18 09:59:39;;;;;;;31.05;9.45;;;;;;;7.28;100.00;103965.44;4994193;28;20057;-48
2021/12/18 10:02:05;;;;;;;25.83;9.55;;;;;;;7.28;100.00;103970.63;4994191;28;20026;-47
2021/12/18 10:04:33;;;;;;;26.52;9.45;;;;;;;7.34;100.00;103955.34;4994203;28;20383;-47
2021/12/18 10:07:01;;;;;;;22.10;8.85;;;;;;;7.35;100.00;103957.16;4994021;28;20022;-47
2021/12/18 10:09:27;;;;;;;25.30;8.43;;;;;;;7.42;100.00;103953.16;4994035;28;20389;-49
2021/12/18 10:11:53;;;;;;;24.38;8.30;;;;;;;7.40;100.00;103960.00;4993986;28;20035;-47
2021/12/18 10:14:32;;;;;;;14.57;6.75;;;;;;;7.38;100.00;103956.41;4995891;28;20034;-46
2021/12/18 10:16:57;;;;;;;17.15;6.95;;;;;;;7.40;100.00;103942.69;4996254;28;20378;-48
2021/12/18 10:19:27;;;;;;;14.73;6.15;;;;;;;7.44;100.00;103942.00;4997661;28;20022;-47
2021/12/18 10:22:01;;;;;;;15.02;6.63;;;;;;;7.47;100.00;103937.00;4997471;28;20030;-47
2021/12/18 10:24:27;;;;;;;10.95;5.47;;;;;;;7.45;100.00;103941.22;4997606;28;20050;-47
2021/12/18 10:26:53;;;;;;;11.65;5.72;;;;;;;7.50;100.00;103929.34;4997330;28;20046;-49
2021/12/18 10:29:36;;;;;;;13.98;6.20;;;;;;;7.55;100.00;103925.28;4997584;28;20034;-48
2021/12/18 10:32:04;;;;;;;11.05;4.80;;;;;;;7.59;100.00;103934.16;4997524;28;20120;-49
2021/12/18 10:34:29;;;;;;;10.95;5.07;;;;;;;7.59;100.00;103930.66;4997345;28;20030;-47
2021/12/18 10:37:21;;;;;;;9.90;4.93;;;;;;;7.64;100.00;103929.19;4997505;28;20031;-50
2021/12/18 10:39:57;;;;;;;10.85;5.05;;;;;;;7.60;100.00;103911.63;4997215;28;20026;-47
2021/12/18 10:42:23;;;;;;;9.80;4.40;;;;;;;7.62;100.00;103928.19;4997197;28;20499;-48
2021/12/18 10:45:14;;;;;;;7.30;4.22;;;;;;;7.63;100.00;103937.81;4997016;28;20034;-47
2021/12/18 10:47:44;;;;;;;7.63;3.97;;;;;;;7.69;100.00;103927.69;4993252;28;20038;-47
2021/12/18 10:50:28;;;;;;;9.45;4.70;;;;;;;7.75;100.00;103922.84;4996979;28;20105;-48
2021/12/18 10:52:59;;;;;;;9.85;5.60;;;;;;;7.80;100.00;103922.25;4996975;28;20117;-49
2021/12/18 10:55:27;;;;;;;12.77;6.20;;;;;;;7.87;100.00;103913.06;4996899;28;20030;-49
2021/12/18 10:57:53;;;;;;;11.40;5.63;;;;;;;7.95;100.00;103927.38;4996983;28;20049;-47
2021/12/18 11:00:31;;;;;;;7.60;4.40;;;;;;;7.96;100.00;103923.94;4996747;28;20525;-47
2021/12/18 11:02:56;;;;;;;6.13;3.97;;;;;;;8.01;100.00;103922.44;4996835;28;20026;-48
2021/12/18 11:05:21;;;;;;;12.00;5.97;;;;;;;7.93;100.00;103909.03;4996816;28;20092;-47
2021/12/18 11:07:52;;;;;;;11.05;4.55;;;;;;;7.94;100.00;103910.84;4996623;28;20133;-47
2021/12/18 11:10:43;;;;;;;11.18;5.65;;;;;;;8.00;100.00;103913.75;4996737;28;20030;-47
2021/12/18 11:15:54;;;;;;;8.95;5.22;;;;;;;7.92;100.00;103911.59;4996885;28;20041;-47
2021/12/18 11:18:20;;;;;;;9.10;5.18;;;;;;;7.99;100.00;103916.28;4994834;28;20038;-50
2021/12/18 11:20:52;;;;;;;10.68;5.63;;;;;;;8.02;100.00;103919.03;4996504;28;20484;-47
2021/12/18 11:23:31;;;;;;;10.23;5.40;;;;;;;8.00;100.00;103912.88;4997243;28;20033;-50
2021/12/18 11:25:57;;;;;;;11.75;5.63;;;;;;;7.95;100.00;103909.13;4995720;28;20029;-47
2021/12/18 11:28:27;;;;;;;12.45;5.10;;;;;;;7.90;100.00;103913.22;4996433;28;20022;-47
2021/12/18 11:30:52;;;;;;;11.25;4.75;;;;;;;7.83;100.00;103908.50;4996481;28;20061;-47
2021/12/18 11:33:18;;;;;;;8.60;4.78;;;;;;;7.81;100.00;103908.41;4996222;28;20054;-47
2021/12/18 11:35:44;;;;;;;7.45;4.45;;;;;;;7.72;100.00;103910.56;4996141;28;20101;-47
2021/12/18 11:38:13;;;;;;;15.27;4.15;;;;;;;7.78;100.00;103907.38;4995849;28;20437;-47
2021/12/18 11:40:39;;;;;;;13.82;4.95;;;;;;;7.84;100.00;103907.69;4995271;28;20049;-48
2021/12/18 11:43:08;;;;;;;9.18;4.45;;;;;;;7.91;100.00;103902.00;4996128;28;20046;-47
2021/12/18 11:45:36;;;;;;;11.38;4.93;;;;;;;7.96;100.00;103897.91;4995917;28;20026;-47
2021/12/18 11:48:04;;;;;;;8.57;3.83;;;;;;;7.91;100.00;103889.88;4995645;28;20030;-47
2021/12/18 11:50:37;;;;;;;9.35;4.10;;;;;;;7.92;100.00;103890.75;4995952;28;20044;-48
2021/12/18 11:53:08;;;;;;;13.85;3.60;;;;;;;7.91;100.00;103894.19;4995535;28;20027;-47
2021/12/18 11:55:48;;;;;;;;;;;;;;;7.80;100.00;103891.00;4996066;28;20109;-47
2021/12/18 11:58:17;;;;;;;7.90;3.20;;;;;;;7.76;100.00;103885.59;4994338;28;19910;-47